Time;durP1;ratioP1;P1;durP2;ratioP2;P2;SDS_P1;SDS_P2;PMS_P1;PMS_P2;Temp;Humidity;BMP_temperature;BMP_pressure;BME280_temperature;BME280_humidity;BME280_pressure;Samples;Min_cycle;Max_cycle;Signal;HPM_P1;HPM_P2
2023/04/12 00:01:17;;;;;;;;;0.67;0.00;;;;;;;;6336108;22;45350;-79
2023/04/12 00:03:49;;;;;;;;;2.33;1.00;;;;;;;;6336144;22;45366;-78
2023/04/12 00:06:16;;;;;;;;;0.25;0.25;;;;;;;;6335760;22;46477;-78
2023/04/12 00:08:41;;;;;;;;;2.00;2.00;;;;;;;;6335481;22;45259;-78
2023/04/12 00:11:06;;;;;;;;;0.00;0.00;;;;;;;;6336259;22;45157;-78
2023/04/12 00:13:32;;;;;;;;;1.67;0.00;;;;;;;;6336579;22;45431;-78
2023/04/12 00:15:57;;;;;;;;;2.00;0.00;;;;;;;;6335373;22;46853;-78
2023/04/12 00:18:23;;;;;;;;;2.00;0.00;;;;;;;;6336652;22;45469;-78
2023/04/12 00:20:49;;;;;;;;;0.00;0.00;;;;;;;;6336084;22;45341;-79
2023/04/12 00:23:16;;;;;;;;;0.00;0.00;;;;;;;;6335648;22;45513;-79
2023/04/12 00:25:41;;;;;;;;;2.00;0.75;;;;;;;;6336341;22;45604;-79
2023/04/12 00:28:06;;;;;;;;;0.75;0.75;;;;;;;;6335821;22;45330;-78
2023/04/12 00:30:32;;;;;;;;;5.00;1.00;;;;;;;;6336119;22;45248;-78
2023/04/12 00:32:57;;;;;;;;;2.00;1.00;;;;;;;;6335545;22;45237;-79
2023/04/12 00:35:22;;;;;;;;;1.25;0.75;;;;;;;;6335299;22;46856;-77
2023/04/12 00:37:49;;;;;;;;;3.00;0.00;;;;;;;;6335967;22;45521;-78
2023/04/12 00:40:14;;;;;;;;;4.50;1.00;;;;;;;;6335798;22;45264;-78
2023/04/12 00:42:39;;;;;;;;;1.50;1.00;;;;;;;;6336071;22;45271;-78
2023/04/12 00:45:05;;;;;;;;;0.00;0.00;;;;;;;;6335678;22;47092;-78
2023/04/12 00:47:31;;;;;;;;;2.00;1.75;;;;;;;;6336145;22;45186;-78
2023/04/12 00:49:57;;;;;;;;;1.67;1.33;;;;;;;;6335992;22;45261;-78
2023/04/12 00:52:22;;;;;;;;;0.00;0.00;;;;;;;;6335809;22;45334;-78
2023/04/12 00:54:48;;;;;;;;;0.33;0.33;;;;;;;;6336139;22;45420;-78
2023/04/12 00:57:13;;;;;;;;;0.75;0.75;;;;;;;;6335609;22;45379;-78
2023/04/12 00:59:39;;;;;;;;;2.00;1.00;;;;;;;;6307777;22;45308;-78
2023/04/12 01:02:06;;;;;;;;;1.50;0.25;;;;;;;;6336181;22;45266;-78
2023/04/12 01:04:33;;;;;;;;;3.25;1.00;;;;;;;;6335147;22;46382;-78
2023/04/12 01:07:00;;;;;;;;;1.00;0.00;;;;;;;;6336044;22;45742;-78
2023/04/12 01:09:34;;;;;;;;;3.00;0.00;;;;;;;;6335620;22;45300;-78
2023/04/12 01:12:07;;;;;;;;;0.50;0.50;;;;;;;;6335821;22;45210;-79
2023/04/12 01:14:45;;;;;;;;;2.50;1.50;;;;;;;;6335348;22;45337;-78
2023/04/12 01:17:13;;;;;;;;;1.75;1.00;;;;;;;;6336084;22;45608;-78
2023/04/12 01:19:38;;;;;;;;;0.00;0.00;;;;;;;;6335271;22;45399;-79
2023/04/12 01:22:12;;;;;;;;;2.00;0.67;;;;;;;;6335626;22;45400;-78
2023/04/12 01:24:56;;;;;;;;;1.00;1.00;;;;;;;;6335474;22;45454;-78
2023/04/12 01:27:29;;;;;;;;;0.00;0.00;;;;;;;;6336062;22;45222;-78
2023/04/12 01:29:55;;;;;;;;;2.00;0.00;;;;;;;;6335858;22;45222;-79
2023/04/12 01:32:21;;;;;;;;;1.00;0.00;;;;;;;;6335472;22;45419;-78
2023/04/12 01:34:46;;;;;;;;;3.00;1.00;;;;;;;;6334926;22;47020;-78
2023/04/12 01:37:11;;;;;;;;;0.75;0.25;;;;;;;;6335276;22;45288;-78
2023/04/12 01:39:37;;;;;;;;;0.00;0.00;;;;;;;;6335418;22;45525;-78
2023/04/12 01:42:02;;;;;;;;;0.75;0.75;;;;;;;;6335823;22;45487;-78
2023/04/12 01:44:27;;;;;;;;;2.33;0.00;;;;;;;;6335778;22;45590;-78
2023/04/12 01:46:53;;;;;;;;;2.33;1.00;;;;;;;;6335112;22;45350;-79
2023/04/12 01:49:18;;;;;;;;;1.00;1.00;;;;;;;;6335068;22;45347;-78
2023/04/12 01:51:43;;;;;;;;;0.00;0.00;;;;;;;;6335246;22;45426;-79
2023/04/12 01:54:10;;;;;;;;;1.00;0.00;;;;;;;;6335291;22;45458;-79
2023/04/12 01:56:37;;;;;;;;;0.00;0.00;;;;;;;;6335216;22;45360;-79
2023/04/12 01:59:03;;;;;;;;;0.50;0.50;;;;;;;;6335811;22;45431;-79
2023/04/12 02:01:28;;;;;;;;;0.50;0.50;;;;;;;;6335666;22;45446;-79
2023/04/12 02:03:54;;;;;;;;;1.50;0.00;;;;;;;;6335062;22;46612;-79
2023/04/12 02:06:20;;;;;;;;;0.00;0.00;;;;;;;;6335471;22;45527;-80
2023/04/12 02:08:46;;;;;;;;;1.00;1.00;;;;;;;;6335730;22;45278;-79
2023/04/12 02:11:11;;;;;;;;;0.75;0.25;;;;;;;;6335945;22;45416;-79
2023/04/12 02:13:36;;;;;;;;;0.67;0.67;;;;;;;;6336986;22;46452;-79
2023/04/12 02:16:01;;;;;;;;;0.33;0.33;;;;;;;;6336898;22;45281;-79
2023/04/12 02:18:27;;;;;;;;;0.00;0.00;;;;;;;;6308439;22;45262;-79
2023/04/12 02:20:52;;;;;;;;;0.75;0.50;;;;;;;;6336497;22;45364;-80
2023/04/12 02:23:18;;;;;;;;;1.50;0.00;;;;;;;;6336253;22;46319;-79
2023/04/12 02:25:45;;;;;;;;;0.33;0.00;;;;;;;;6337072;22;45214;-79
2023/04/12 02:28:10;;;;;;;;;2.00;0.00;;;;;;;;6336671;22;45273;-79
2023/04/12 02:30:35;;;;;;;;;0.67;0.00;;;;;;;;6336960;22;45409;-79
2023/04/12 02:33:01;;;;;;;;;1.00;1.00;;;;;;;;6336220;22;45686;-79
2023/04/12 02:35:26;;;;;;;;;0.00;0.00;;;;;;;;6336798;22;45393;-79
2023/04/12 02:37:52;;;;;;;;;0.00;0.00;;;;;;;;6337193;22;45246;-79
2023/04/12 02:40:17;;;;;;;;;0.00;0.00;;;;;;;;6336543;22;45278;-79
2023/04/12 02:42:43;;;;;;;;;2.33;0.00;;;;;;;;6336816;22;45530;-79
2023/04/12 02:45:09;;;;;;;;;0.25;0.25;;;;;;;;6336359;22;45277;-78
2023/04/12 02:47:34;;;;;;;;;1.25;1.00;;;;;;;;6336231;22;45273;-79
2023/04/12 02:50:00;;;;;;;;;0.00;0.00;;;;;;;;6336442;22;45497;-79
2023/04/12 02:52:25;;;;;;;;;0.00;0.00;;;;;;;;6336301;22;46001;-78
2023/04/12 02:54:51;;;;;;;;;0.00;0.00;;;;;;;;6336170;22;45375;-79
2023/04/12 02:57:16;;;;;;;;;0.50;0.00;;;;;;;;6336382;22;45168;-79
2023/04/12 02:59:41;;;;;;;;;1.00;0.00;;;;;;;;6337203;22;45405;-77
2023/04/12 03:02:07;;;;;;;;;8.67;7.33;;;;;;;;6335994;22;45402;-78
2023/04/12 03:04:32;;;;;;;;;3.25;1.00;;;;;;;;6336662;22;45176;-79
2023/04/12 03:06:57;;;;;;;;;0.00;0.00;;;;;;;;6336988;22;45249;-78
2023/04/12 03:09:23;;;;;;;;;0.00;0.00;;;;;;;;6336534;22;45222;-81
2023/04/12 03:11:49;;;;;;;;;0.00;0.00;;;;;;;;6336344;22;46196;-83
2023/04/12 03:14:14;;;;;;;;;3.00;0.00;;;;;;;;6336772;22;45308;-82
2023/04/12 03:16:39;;;;;;;;;1.00;0.00;;;;;;;;6308432;22;45289;-82
2023/04/12 03:19:05;;;;;;;;;0.00;0.00;;;;;;;;6337138;22;45345;-81
2023/04/12 03:21:32;;;;;;;;;0.25;0.00;;;;;;;;6336008;22;45296;-80
2023/04/12 03:23:57;;;;;;;;;0.00;0.00;;;;;;;;6308209;22;45581;-81
2023/04/12 03:26:25;;;;;;;;;0.00;0.00;;;;;;;;6336443;22;45322;-81
2023/04/12 03:28:50;;;;;;;;;2.00;0.00;;;;;;;;6336828;22;45408;-80
2023/04/12 03:31:19;;;;;;;;;0.00;0.00;;;;;;;;6336452;22;46355;-81
2023/04/12 03:33:44;;;;;;;;;0.00;0.00;;;;;;;;6336348;22;45603;-81
2023/04/12 03:36:10;;;;;;;;;0.00;0.00;;;;;;;;6336401;22;45369;-81
2023/04/12 03:38:35;;;;;;;;;0.00;0.00;;;;;;;;6336629;22;45444;-80
2023/04/12 03:41:00;;;;;;;;;0.00;0.00;;;;;;;;6336055;22;46809;-80
2023/04/12 03:43:26;;;;;;;;;0.00;0.00;;;;;;;;6336213;22;45451;-81
2023/04/12 03:45:51;;;;;;;;;0.00;0.00;;;;;;;;6336028;22;45295;-80
2023/04/12 03:48:16;;;;;;;;;0.00;0.00;;;;;;;;6336686;22;45553;-80
2023/04/12 03:50:43;;;;;;;;;0.00;0.00;;;;;;;;6336330;22;46341;-81
2023/04/12 03:53:09;;;;;;;;;0.00;0.00;;;;;;;;6336756;22;45237;-80
2023/04/12 03:55:36;;;;;;;;;0.00;0.00;;;;;;;;6336356;22;45581;-80
2023/04/12 03:58:01;;;;;;;;;0.00;0.00;;;;;;;;6336374;22;45225;-81
2023/04/12 04:00:26;;;;;;;;;0.00;0.00;;;;;;;;6333767;22;47070;-81
2023/04/12 04:02:51;;;;;;;;;0.00;0.00;;;;;;;;6336571;22;45304;-81
2023/04/12 04:05:17;;;;;;;;;0.00;0.00;;;;;;;;6336801;22;45214;-81
2023/04/12 04:07:42;;;;;;;;;0.00;0.00;;;;;;;;6335956;22;45200;-80
2023/04/12 04:10:07;;;;;;;;;0.00;0.00;;;;;;;;6334506;22;47511;-80
2023/04/12 04:12:33;;;;;;;;;0.00;0.00;;;;;;;;6336504;22;45265;-80
2023/04/12 04:14:58;;;;;;;;;0.00;0.00;;;;;;;;6336386;22;45304;-79
2023/04/12 04:17:23;;;;;;;;;1.00;0.00;;;;;;;;6336465;22;45456;-80
2023/04/12 04:19:48;;;;;;;;;0.00;0.00;;;;;;;;6335881;22;46332;-79
2023/04/12 04:22:13;;;;;;;;;0.00;0.00;;;;;;;;6336037;22;45370;-83
2023/04/12 04:24:39;;;;;;;;;3.00;0.00;;;;;;;;6334417;22;45359;-82
2023/04/12 04:27:05;;;;;;;;;1.33;0.00;;;;;;;;6336598;22;45477;-81
2023/04/12 04:29:30;;;;;;;;;0.00;0.00;;;;;;;;6335572;22;45330;-80
2023/04/12 04:31:56;;;;;;;;;0.75;0.00;;;;;;;;6335975;22;45376;-80
2023/04/12 04:34:22;;;;;;;;;0.00;0.00;;;;;;;;6335698;22;45271;-80
2023/04/12 04:36:47;;;;;;;;;0.00;0.00;;;;;;;;6336368;22;45335;-80
2023/04/12 04:39:12;;;;;;;;;0.00;0.00;;;;;;;;6334645;22;47458;-80
2023/04/12 04:41:40;;;;;;;;;1.00;0.00;;;;;;;;6336398;22;45313;-80
2023/04/12 04:44:09;;;;;;;;;0.00;0.00;;;;;;;;6335892;22;45190;-80
2023/04/12 04:46:35;;;;;;;;;0.00;0.00;;;;;;;;6336237;22;45528;-80
2023/04/12 04:49:01;;;;;;;;;0.00;0.00;;;;;;;;6335983;22;45704;-80
2023/04/12 04:51:26;;;;;;;;;0.00;0.00;;;;;;;;6335858;22;45348;-81
2023/04/12 04:53:51;;;;;;;;;7.00;5.33;;;;;;;;6336660;22;45333;-81
2023/04/12 04:56:16;;;;;;;;;10.33;9.33;;;;;;;;6336502;22;45451;-80
2023/04/12 04:58:42;;;;;;;;;3.00;3.00;;;;;;;;6336003;22;45363;-80
2023/04/12 05:01:07;;;;;;;;;7.00;5.00;;;;;;;;6336427;22;45306;-81
2023/04/12 05:03:33;;;;;;;;;0.33;0.00;;;;;;;;6336084;22;45347;-80
2023/04/12 05:05:58;;;;;;;;;5.00;2.50;;;;;;;;6335855;22;45570;-80
2023/04/12 05:08:24;;;;;;;;;5.00;5.00;;;;;;;;6336158;22;46384;-79
2023/04/12 05:10:51;;;;;;;;;4.25;2.25;;;;;;;;6336243;22;45355;-79
2023/04/12 05:13:16;;;;;;;;;2.25;1.00;;;;;;;;6335691;22;45267;-80
2023/04/12 05:15:41;;;;;;;;;1.67;1.67;;;;;;;;6335924;22;45402;-79
2023/04/12 05:18:06;;;;;;;;;2.67;2.00;;;;;;;;6335722;22;45277;-79
2023/04/12 05:20:32;;;;;;;;;0.00;0.00;;;;;;;;6336267;22;45300;-79
2023/04/12 05:22:57;;;;;;;;;1.00;1.00;;;;;;;;6336252;22;45409;-79
2023/04/12 05:25:22;;;;;;;;;1.67;1.00;;;;;;;;6335959;22;45180;-79
2023/04/12 05:27:47;;;;;;;;;2.00;1.00;;;;;;;;6336122;22;45488;-78
2023/04/12 05:30:12;;;;;;;;;2.00;2.00;;;;;;;;6336045;22;45329;-77
2023/04/12 05:32:38;;;;;;;;;5.00;5.00;;;;;;;;6336194;22;45131;-79
2023/04/12 05:35:03;;;;;;;;;6.00;5.00;;;;;;;;6336330;22;45352;-79
2023/04/12 05:37:28;;;;;;;;;8.00;6.00;;;;;;;;6335362;22;46135;-79
2023/04/12 05:39:53;;;;;;;;;1.00;1.00;;;;;;;;6335173;22;45321;-78
2023/04/12 05:42:19;;;;;;;;;3.00;3.00;;;;;;;;6335960;22;45369;-79
2023/04/12 05:44:44;;;;;;;;;2.00;0.00;;;;;;;;6335996;22;45391;-79
2023/04/12 05:47:10;;;;;;;;;5.00;3.50;;;;;;;;6336645;22;45924;-79
2023/04/12 05:49:35;;;;;;;;;5.00;3.00;;;;;;;;6336753;22;45379;-80
2023/04/12 05:52:01;;;;;;;;;3.00;2.00;;;;;;;;6337065;22;45296;-79
2023/04/12 05:54:26;;;;;;;;;4.00;3.00;;;;;;;;6336960;22;45223;-79
2023/04/12 05:56:54;;;;;;;;;9.50;6.25;;;;;;;;6336962;22;45813;-79
2023/04/12 05:59:19;;;;;;;;;0.00;0.00;;;;;;;;6337332;22;45164;-80
2023/04/12 06:01:45;;;;;;;;;0.75;0.75;;;;;;;;6336678;22;45222;-80
2023/04/12 06:04:10;;;;;;;;;0.25;0.25;;;;;;;;6336805;22;45144;-79
2023/04/12 06:06:36;;;;;;;;;0.00;0.00;;;;;;;;6336606;22;47019;-80
2023/04/12 06:09:01;;;;;;;;;6.00;5.00;;;;;;;;6336747;22;45482;-79
2023/04/12 06:11:26;;;;;;;;;2.00;2.00;;;;;;;;6337188;22;45312;-80
2023/04/12 06:13:52;;;;;;;;;3.00;0.00;;;;;;;;6336944;22;45482;-80
2023/04/12 06:16:17;;;;;;;;;0.00;0.00;;;;;;;;6337089;22;46235;-79
2023/04/12 06:18:42;;;;;;;;;0.00;0.00;;;;;;;;6336804;22;45144;-79
2023/04/12 06:21:07;;;;;;;;;0.00;0.00;;;;;;;;6336841;22;45246;-80
2023/04/12 06:23:32;;;;;;;;;0.00;0.00;;;;;;;;6336866;22;45321;-80
2023/04/12 06:25:58;;;;;;;;;0.00;0.00;;;;;;;;6337045;22;46215;-81
2023/04/12 06:28:23;;;;;;;;;0.00;0.00;;;;;;;;6337253;22;45214;-81
2023/04/12 06:30:48;;;;;;;;;0.25;0.25;;;;;;;;6337289;22;45456;-81
2023/04/12 06:33:14;;;;;;;;;0.33;0.33;;;;;;;;6337320;22;45375;-81
2023/04/12 06:35:39;;;;;;;;;4.00;1.00;;;;;;;;6335817;22;46382;-80
2023/04/12 06:38:05;;;;;;;;;1.75;1.00;;;;;;;;6336024;22;45379;-81
2023/04/12 06:40:30;;;;;;;;;1.50;1.00;;;;;;;;6335826;22;45331;-81
2023/04/12 06:42:55;;;;;;;;;6.00;2.00;;;;;;;;6336800;22;45361;-80
2023/04/12 06:45:21;;;;;;;;;7.00;2.00;;;;;;;;6336883;22;46254;-80
2023/04/12 06:47:46;;;;;;;;;2.00;1.00;;;;;;;;6336787;22;45516;-80
2023/04/12 06:50:11;;;;;;;;;0.00;0.00;;;;;;;;6336113;22;45317;-80
2023/04/12 06:52:36;;;;;;;;;1.00;0.00;;;;;;;;6336473;22;45293;-78
2023/04/12 06:55:02;;;;;;;;;0.00;0.00;;;;;;;;6335353;22;45590;-80
2023/04/12 06:57:27;;;;;;;;;0.00;0.00;;;;;;;;6308302;22;45277;-80
2023/04/12 06:59:52;;;;;;;;;2.33;0.00;;;;;;;;6336180;22;45731;-79
2023/04/12 07:02:17;;;;;;;;;0.00;0.00;;;;;;;;6337046;22;45427;-79
2023/04/12 07:04:42;;;;;;;;;2.00;1.00;;;;;;;;6336818;22;45959;-78
2023/04/12 07:07:09;;;;;;;;;0.00;0.00;;;;;;;;6335982;22;45311;-77
2023/04/12 07:09:34;;;;;;;;;2.00;0.00;;;;;;;;6336474;22;45296;-78
2023/04/12 07:12:00;;;;;;;;;2.00;0.00;;;;;;;;6335934;22;45424;-78
2023/04/12 07:14:25;;;;;;;;;2.00;0.00;;;;;;;;6335426;22;46257;-78
2023/04/12 07:16:50;;;;;;;;;0.00;0.00;;;;;;;;6336126;22;45252;-78
2023/04/12 07:19:15;;;;;;;;;0.67;0.00;;;;;;;;6332414;22;45704;-77
2023/04/12 07:21:41;;;;;;;;;0.67;0.00;;;;;;;;6333277;22;45790;-77
2023/04/12 07:24:06;;;;;;;;;0.00;0.00;;;;;;;;6324620;22;45562;-77
2023/04/12 07:26:31;;;;;;;;;0.00;0.00;;;;;;;;6334691;22;45243;-77
2023/04/12 07:28:56;;;;;;;;;0.00;0.00;;;;;;;;6336047;22;45551;-76
2023/04/12 07:31:22;;;;;;;;;0.00;0.00;;;;;;;;6336473;22;45572;-77
2023/04/12 07:33:48;;;;;;;;;0.00;0.00;;;;;;;;6335480;22;45991;-77
2023/04/12 07:36:15;;;;;;;;;0.00;0.00;;;;;;;;6335855;22;45263;-77
2023/04/12 07:38:40;;;;;;;;;0.00;0.00;;;;;;;;6335731;22;45348;-78
2023/04/12 07:41:05;;;;;;;;;0.00;0.00;;;;;;;;6335725;22;45508;-78
2023/04/12 07:43:31;;;;;;;;;0.00;0.00;;;;;;;;6335708;22;46506;-78
2023/04/12 07:45:56;;;;;;;;;0.00;0.00;;;;;;;;6335432;22;45276;-77
2023/04/12 07:48:21;;;;;;;;;0.00;0.00;;;;;;;;6335667;22;45322;-78
2023/04/12 07:50:46;;;;;;;;;0.00;0.00;;;;;;;;6334096;22;45232;-79
2023/04/12 07:53:19;;;;;;;;;0.00;0.00;;;;;;;;6336102;22;45380;-79
2023/04/12 07:55:44;;;;;;;;;0.00;0.00;;;;;;;;6333548;22;45770;-79
2023/04/12 07:58:10;;;;;;;;;1.00;0.00;;;;;;;;6332471;22;45375;-78
2023/04/12 08:00:35;;;;;;;;;0.50;0.50;;;;;;;;6335107;22;45183;-78
2023/04/12 08:03:00;;;;;;;;;0.00;0.00;;;;;;;;6334776;22;45347;-79
2023/04/12 08:05:25;;;;;;;;;0.00;0.00;;;;;;;;6334777;22;45396;-81
2023/04/12 08:07:51;;;;;;;;;0.33;0.33;;;;;;;;6334662;22;45489;-80
2023/04/12 08:10:16;;;;;;;;;0.00;0.00;;;;;;;;6334068;22;45612;-80
2023/04/12 08:12:41;;;;;;;;;1.67;0.00;;;;;;;;6334805;22;46389;-80
2023/04/12 08:15:06;;;;;;;;;0.00;0.00;;;;;;;;6335134;22;45604;-79
2023/04/12 08:17:32;;;;;;;;;0.00;0.00;;;;;;;;6335709;22;45317;-79
2023/04/12 08:19:57;;;;;;;;;1.00;0.00;;;;;;;;6332078;22;45353;-79
2023/04/12 08:22:22;;;;;;;;;0.00;0.00;;;;;;;;6334431;22;45609;-78
2023/04/12 08:24:48;;;;;;;;;0.00;0.00;;;;;;;;6334474;22;45442;-78
2023/04/12 08:27:15;;;;;;;;;0.00;0.00;;;;;;;;6334848;22;45341;-78
2023/04/12 08:29:40;;;;;;;;;2.00;0.00;;;;;;;;6334534;22;45324;-81
2023/04/12 08:32:06;;;;;;;;;0.00;0.00;;;;;;;;6334539;22;47140;-80
2023/04/12 08:34:31;;;;;;;;;0.00;0.00;;;;;;;;6334928;22;45403;-80
2023/04/12 08:36:59;;;;;;;;;0.00;0.00;;;;;;;;6334809;22;45453;-80
2023/04/12 08:39:24;;;;;;;;;0.00;0.00;;;;;;;;6335782;22;45482;-80
2023/04/12 08:41:50;;;;;;;;;0.00;0.00;;;;;;;;6335538;22;46303;-81
2023/04/12 08:44:35;;;;;;;;;0.00;0.00;;;;;;;;5098127;27;45330;-79
2023/04/12 08:47:04;;;;;;;;;0.25;0.00;;;;;;;;5095490;27;45800;-80
2023/04/12 08:49:31;;;;;;;;;0.00;0.00;;;;;;;;5106759;27;45327;-79
2023/04/12 08:51:58;;;;;;;;;0.00;0.00;;;;;;;;5111776;27;45736;-79
2023/04/12 08:54:24;;;;;;;;;0.50;0.00;;;;;;;;5104380;27;46441;-80
2023/04/12 08:56:49;;;;;;;;;0.00;0.00;;;;;;;;5103282;27;45429;-79
2023/04/12 08:59:15;;;;;;;;;0.00;0.00;;;;;;;;5092267;27;45501;-80
2023/04/12 09:01:40;;;;;;;;;0.00;0.00;;;;;;;;5085614;27;46280;-81
2023/04/12 09:04:06;;;;;;;;;0.00;0.00;;;;;;;;5105795;27;45986;-81
2023/04/12 09:06:32;;;;;;;;;0.00;0.00;;;;;;;;5088380;27;45402;-80
2023/04/12 09:08:59;;;;;;;;;0.00;0.00;;;;;;;;5104817;27;45396;-81
2023/04/12 09:11:26;;;;;;;;;0.00;0.00;;;;;;;;5095681;27;45299;-80
2023/04/12 09:13:52;;;;;;;;;1.00;0.00;;;;;;;;5078920;27;46507;-80
2023/04/12 09:16:32;;;;;;;;;0.00;0.00;;;;;;;;5105061;27;45791;-81
2023/04/12 09:19:01;;;;;;;;;0.00;0.00;;;;;;;;5092696;27;45246;-82
2023/04/12 09:21:26;;;;;;;;;0.00;0.00;;;;;;;;5082256;27;45466;-81
2023/04/12 09:24:12;;;;;;;;;0.25;0.00;;;;;;;;5108473;27;46082;-80
2023/04/12 09:26:37;;;;;;;;;1.00;0.00;;;;;;;;5101845;27;45761;-80
2023/04/12 09:29:03;;;;;;;;;0.00;0.00;;;;;;;;5097824;27;45323;-80
2023/04/12 09:31:28;;;;;;;;;0.00;0.00;;;;;;;;5092123;27;45491;-81
2023/04/12 09:34:04;;;;;;;;;0.00;0.00;;;;;;;;5107818;27;46459;-81
2023/04/12 09:36:36;;;;;;;;;0.00;0.00;;;;;;;;5082168;27;45970;-80
2023/04/12 09:39:02;;;;;;;;;0.00;0.00;;;;;;;;5086489;27;45438;-81
2023/04/12 09:41:29;;;;;;;;;0.00;0.00;;;;;;;;5097987;27;45630;-80
2023/04/12 09:43:54;;;;;;;;;0.00;0.00;;;;;;;;5107305;27;46445;-81
2023/04/12 09:46:21;;;;;;;;;0.33;0.00;;;;;;;;5103854;27;45447;-80
2023/04/12 09:48:50;;;;;;;;;0.00;0.00;;;;;;;;5096265;27;45420;-80
2023/04/12 09:51:27;;;;;;;;;1.00;0.00;;;;;;;;5081861;27;45514;-81
2023/04/12 09:53:52;;;;;;;;;0.00;0.00;;;;;;;;5075582;27;46465;-80
2023/04/12 09:56:21;;;;;;;;;0.00;0.00;;;;;;;;5064978;27;45720;-80
2023/04/12 09:58:47;;;;;;;;;2.50;0.00;;;;;;;;5086354;27;45616;-80
2023/04/12 10:01:13;;;;;;;;;0.00;0.00;;;;;;;;5092560;27;45319;-80
2023/04/12 10:03:38;;;;;;;;;0.00;0.00;;;;;;;;5080924;27;45380;-81
2023/04/12 10:06:04;;;;;;;;;0.00;0.00;;;;;;;;5077209;27;45476;-82
2023/04/12 10:08:29;;;;;;;;;0.00;0.00;;;;;;;;5089442;27;45303;-82
2023/04/12 10:10:55;;;;;;;;;0.00;0.00;;;;;;;;5078867;27;45426;-78
2023/04/12 10:13:22;;;;;;;;;0.00;0.00;;;;;;;;5075015;27;46203;-80
2023/04/12 10:15:49;;;;;;;;;0.00;0.00;;;;;;;;5093357;27;45732;-81
2023/04/12 10:18:17;;;;;;;;;0.50;0.00;;;;;;;;5083925;27;45494;-81
2023/04/12 10:20:42;;;;;;;;;0.00;0.00;;;;;;;;5083286;27;45298;-78
2023/04/12 10:23:08;;;;;;;;;0.75;0.00;;;;;;;;5069113;27;46579;-79
2023/04/12 10:25:33;;;;;;;;;1.00;0.00;;;;;;;;5092714;27;45455;-77
2023/04/12 10:28:12;;;;;;;;;0.00;0.00;;;;;;;;5081161;27;45385;-78
2023/04/12 10:30:37;;;;;;;;;0.00;0.00;;;;;;;;5083152;27;45740;-77
2023/04/12 10:33:02;;;;;;;;;0.00;0.00;;;;;;;;5083576;27;46288;-78
2023/04/12 10:35:28;;;;;;;;;1.00;0.00;;;;;;;;5079202;27;45687;-77
2023/04/12 10:37:58;;;;;;;;;0.25;0.00;;;;;;;;5071350;27;45476;-79
2023/04/12 10:40:23;;;;;;;;;0.00;0.00;;;;;;;;5084796;27;45252;-79
2023/04/12 10:43:08;;;;;;;;;0.00;0.00;;;;;;;;5085301;27;46234;-79
2023/04/12 10:45:35;;;;;;;;;1.50;0.00;;;;;;;;5079222;27;46102;-77
2023/04/12 10:48:02;;;;;;;;;0.00;0.00;;;;;;;;5066720;27;45398;-78
2023/04/12 10:50:29;;;;;;;;;2.75;0.00;;;;;;;;5088842;27;45328;-79
2023/04/12 10:53:11;;;;;;;;;0.00;0.00;;;;;;;;5079582;27;45493;-78
2023/04/12 10:55:37;;;;;;;;;0.00;0.00;;;;;;;;5082011;27;45425;-80
2023/04/12 10:58:02;;;;;;;;;0.00;0.00;;;;;;;;5073361;28;45806;-81
2023/04/12 11:00:47;;;;;;;;;0.00;0.00;;;;;;;;5084971;27;45556;-79
2023/04/12 11:03:13;;;;;;;;;2.00;0.00;;;;;;;;5076729;27;45416;-80
2023/04/12 11:05:58;;;;;;;;;0.00;0.00;;;;;;;;5090327;27;45526;-80
2023/04/12 11:08:23;;;;;;;;;0.00;0.00;;;;;;;;5090205;27;45428;-81
2023/04/12 11:10:49;;;;;;;;;0.00;0.00;;;;;;;;5081128;27;45748;-80
2023/04/12 11:13:15;;;;;;;;;1.50;0.00;;;;;;;;5086398;27;45581;-80
2023/04/12 11:15:40;;;;;;;;;0.00;0.00;;;;;;;;5093235;27;45443;-80
2023/04/12 11:18:05;;;;;;;;;0.00;0.00;;;;;;;;5082113;27;45420;-79
2023/04/12 11:20:32;;;;;;;;;1.00;0.00;;;;;;;;5085239;27;45411;-78
2023/04/12 11:22:58;;;;;;;;;2.00;0.00;;;;;;;;5075564;27;46588;-78
2023/04/12 11:25:23;;;;;;;;;0.00;0.00;;;;;;;;5093023;27;45426;-79
2023/04/12 11:27:50;;;;;;;;;0.50;0.00;;;;;;;;5080145;27;45311;-78
2023/04/12 11:30:15;;;;;;;;;0.00;0.00;;;;;;;;5089536;27;45237;-79
2023/04/12 11:32:43;;;;;;;;;3.00;0.00;;;;;;;;5086616;27;46276;-80
2023/04/12 11:35:08;;;;;;;;;0.00;0.00;;;;;;;;5081702;27;45919;-78
2023/04/12 11:37:34;;;;;;;;;1.00;0.00;;;;;;;;5080832;27;45517;-81
2023/04/12 11:39:59;;;;;;;;;0.00;0.00;;;;;;;;5091973;27;45559;-80
2023/04/12 11:42:26;;;;;;;;;1.00;0.00;;;;;;;;5083989;27;45449;-80
2023/04/12 11:44:51;;;;;;;;;1.00;0.00;;;;;;;;5084466;27;45778;-80
2023/04/12 11:47:20;;;;;;;;;0.00;0.00;;;;;;;;5076455;27;45381;-80
2023/04/12 11:49:50;;;;;;;;;0.00;0.00;;;;;;;;5092457;27;45561;-79
2023/04/12 11:52:16;;;;;;;;;0.00;0.00;;;;;;;;5064262;27;47556;-81
2023/04/12 11:54:48;;;;;;;;;0.00;0.00;;;;;;;;5077160;27;45745;-83
2023/04/12 11:57:14;;;;;;;;;0.00;0.00;;;;;;;;5073240;27;45446;-82
2023/04/12 11:59:41;;;;;;;;;1.00;0.00;;;;;;;;5080759;27;45456;-82
2023/04/12 12:02:07;;;;;;;;;0.00;0.00;;;;;;;;5080793;27;45717;-81
2023/04/12 12:04:33;;;;;;;;;0.00;0.00;;;;;;;;5079556;27;45388;-84
2023/04/12 12:06:59;;;;;;;;;0.00;0.00;;;;;;;;5075992;28;45376;-82
2023/04/12 12:09:25;;;;;;;;;0.00;0.00;;;;;;;;5085511;27;45322;-86
2023/04/12 12:11:50;;;;;;;;;0.00;0.00;;;;;;;;5078803;27;45330;-84
2023/04/12 12:14:19;;;;;;;;;0.00;0.00;;;;;;;;5072218;28;45930;-87
2023/04/12 12:16:52;;;;;;;;;1.00;0.00;;;;;;;;5081387;28;45452;-88
2023/04/12 12:19:25;;;;;;;;;0.00;0.00;;;;;;;;5081470;28;45355;-86
2023/04/12 12:21:51;;;;;;;;;0.00;0.00;;;;;;;;5081968;27;47222;-87
2023/04/12 12:24:16;;;;;;;;;1.00;0.00;;;;;;;;5096367;27;45397;-87
2023/04/12 12:26:41;;;;;;;;;1.00;0.00;;;;;;;;5080242;28;45350;-85
2023/04/12 12:29:15;;;;;;;;;0.67;0.00;;;;;;;;5057776;28;45323;-84
2023/04/12 12:31:44;;;;;;;;;0.00;0.00;;;;;;;;5094320;27;46456;-88
2023/04/12 12:34:12;;;;;;;;;0.00;0.00;;;;;;;;5080787;27;45544;-88
2023/04/12 12:36:37;;;;;;;;;0.00;0.00;;;;;;;;5088896;27;45556;-90
2023/04/12 12:39:14;;;;;;;;;0.33;0.00;;;;;;;;5097057;27;45428;-85
2023/04/12 12:41:40;;;;;;;;;0.25;0.00;;;;;;;;5092115;27;47311;-83
2023/04/12 12:44:06;;;;;;;;;0.00;0.00;;;;;;;;5078280;28;45221;-86
2023/04/12 12:46:31;;;;;;;;;0.00;0.00;;;;;;;;5080504;27;45456;-86
2023/04/12 12:48:57;;;;;;;;;0.00;0.00;;;;;;;;5077847;28;45406;-84
2023/04/12 12:51:22;;;;;;;;;0.00;0.00;;;;;;;;5079965;27;46107;-88
2023/04/12 12:53:47;;;;;;;;;0.33;0.00;;;;;;;;5074759;27;45393;-88
2023/04/12 12:56:13;;;;;;;;;0.00;0.00;;;;;;;;5075540;28;45370;-85
2023/04/12 12:58:39;;;;;;;;;0.00;0.00;;;;;;;;5076150;28;45628;-89
2023/04/12 13:01:05;;;;;;;;;0.00;0.00;;;;;;;;5080036;27;46284;-83
2023/04/12 13:03:30;;;;;;;;;0.00;0.00;;;;;;;;5062826;27;45751;-83
2023/04/12 13:05:56;;;;;;;;;0.00;0.00;;;;;;;;5068867;28;45880;-83
2023/04/12 13:08:21;;;;;;;;;0.00;0.00;;;;;;;;5068789;27;45413;-84
2023/04/12 13:10:47;;;;;;;;;0.00;0.00;;;;;;;;5068331;28;45537;-83
2023/04/12 13:13:12;;;;;;;;;0.00;0.00;;;;;;;;5050470;28;45507;-83
2023/04/12 13:15:37;;;;;;;;;1.00;0.00;;;;;;;;5068627;27;45481;-83
2023/04/12 13:18:02;;;;;;;;;0.00;0.00;;;;;;;;5055238;27;45534;-83
2023/04/12 13:20:27;;;;;;;;;0.33;0.00;;;;;;;;5066491;28;46377;-84
2023/04/12 13:22:53;;;;;;;;;1.00;0.00;;;;;;;;5068005;28;45674;-83
2023/04/12 13:25:18;;;;;;;;;0.00;0.00;;;;;;;;5058882;27;45881;-84
2023/04/12 13:27:44;;;;;;;;;0.00;0.00;;;;;;;;5059500;27;45870;-84
2023/04/12 13:30:09;;;;;;;;;0.00;0.00;;;;;;;;5056041;27;47290;-81
2023/04/12 13:32:34;;;;;;;;;0.00;0.00;;;;;;;;5091010;27;45348;-84
2023/04/12 13:34:59;;;;;;;;;0.75;0.00;;;;;;;;5080126;27;45557;-83
2023/04/12 13:37:25;;;;;;;;;0.33;0.00;;;;;;;;5058531;28;45523;-84
2023/04/12 13:39:50;;;;;;;;;0.00;0.00;;;;;;;;5065003;27;47984;-83
2023/04/12 13:42:15;;;;;;;;;0.00;0.00;;;;;;;;5076531;28;45523;-84
2023/04/12 13:44:41;;;;;;;;;0.00;0.00;;;;;;;;5086726;27;45414;-87
2023/04/12 13:47:06;;;;;;;;;0.00;0.00;;;;;;;;5055674;28;45659;-83
2023/04/12 13:49:31;;;;;;;;;0.00;0.00;;;;;;;;5091835;27;46453;-82
2023/04/12 13:51:56;;;;;;;;;0.00;0.00;;;;;;;;5086968;27;45613;-84
2023/04/12 13:54:22;;;;;;;;;0.00;0.00;;;;;;;;5084295;27;45375;-84
2023/04/12 13:56:47;;;;;;;;;0.00;0.00;;;;;;;;5085903;27;45541;-83
2023/04/12 13:59:13;;;;;;;;;0.00;0.00;;;;;;;;5085144;27;45535;-83
2023/04/12 14:01:38;;;;;;;;;0.00;0.00;;;;;;;;5095158;27;45606;-83
2023/04/12 14:04:03;;;;;;;;;0.00;0.00;;;;;;;;5082227;27;45378;-84
2023/04/12 14:06:28;;;;;;;;;0.00;0.00;;;;;;;;5067675;28;45563;-84
2023/04/12 14:08:54;;;;;;;;;0.00;0.00;;;;;;;;5079257;27;46740;-82
2023/04/12 14:11:21;;;;;;;;;0.00;0.00;;;;;;;;5080454;27;45516;-85
2023/04/12 14:13:46;;;;;;;;;1.75;0.00;;;;;;;;5091452;27;45429;-82
2023/04/12 14:16:12;;;;;;;;;0.00;0.00;;;;;;;;5090718;27;45470;-82
2023/04/12 14:18:37;;;;;;;;;0.00;0.00;;;;;;;;5077777;27;46312;-85
2023/04/12 14:21:02;;;;;;;;;0.00;0.00;;;;;;;;5083237;27;45496;-83
2023/04/12 14:23:28;;;;;;;;;0.00;0.00;;;;;;;;5091991;27;45434;-82
2023/04/12 14:25:53;;;;;;;;;0.00;0.00;;;;;;;;5070383;27;45426;-82
2023/04/12 14:28:20;;;;;;;;;0.00;0.00;;;;;;;;5086891;27;47233;-83
2023/04/12 14:30:47;;;;;;;;;0.00;0.00;;;;;;;;5084573;27;45385;-83
2023/04/12 14:33:12;;;;;;;;;2.00;0.00;;;;;;;;5085588;27;45463;-82
2023/04/12 14:35:38;;;;;;;;;0.00;0.00;;;;;;;;5080640;27;45604;-82
2023/04/12 14:38:03;;;;;;;;;0.00;0.00;;;;;;;;5086893;27;46335;-83